createdAt,value
2022-07-31T00:00:42.038Z,4.75
2022-07-31T00:03:09.095Z,3.20
2022-07-31T00:05:38.699Z,3.95
2022-07-31T00:08:08.884Z,4.03
2022-07-31T00:10:36.258Z,3.88
2022-07-31T00:13:03.085Z,3.67
2022-07-31T00:15:30.191Z,3.55
2022-07-31T00:17:57.999Z,3.90
2022-07-31T00:20:24.750Z,3.50
2022-07-31T00:22:51.537Z,3.70
2022-07-31T00:25:19.057Z,3.33
2022-07-31T00:27:45.950Z,3.20
2022-07-31T00:30:17.642Z,3.17
2022-07-31T00:32:48.975Z,3.03
2022-07-31T00:35:18.762Z,3.58
2022-07-31T00:37:45.791Z,3.67
2022-07-31T00:40:15.732Z,2.95
2022-07-31T00:42:42.575Z,3.30
2022-07-31T00:45:10.352Z,3.38
2022-07-31T00:47:40.300Z,3.10
2022-07-31T00:50:08.018Z,3.63
2022-07-31T00:52:34.849Z,3.22
2022-07-31T00:55:01.798Z,3.30
2022-07-31T00:57:28.611Z,3.05
2022-07-31T00:59:55.352Z,3.80
2022-07-31T01:02:22.205Z,3.22
2022-07-31T01:04:48.990Z,3.30
2022-07-31T01:07:16.234Z,3.30
2022-07-31T01:09:43.023Z,3.10
2022-07-31T01:12:26.335Z,2.85
2022-07-31T01:14:55.734Z,3.50
2022-07-31T01:17:23.536Z,3.25
2022-07-31T01:19:51.037Z,3.15
2022-07-31T01:22:33.170Z,3.60
2022-07-31T01:25:11.727Z,3.38
2022-07-31T01:28:21.718Z,3.38
2022-07-31T01:31:04.982Z,3.10
2022-07-31T01:33:43.488Z,3.40
2022-07-31T01:36:14.150Z,3.17
2022-07-31T01:38:45.786Z,3.83
2022-07-31T01:41:13.990Z,3.45
2022-07-31T01:43:42.193Z,3.17
2022-07-31T01:46:12.777Z,3.20
2022-07-31T01:48:40.086Z,3.95
2022-07-31T01:51:09.135Z,3.85
2022-07-31T01:53:37.102Z,3.15
2022-07-31T01:56:04.571Z,3.20
2022-07-31T01:58:38.638Z,3.13
2022-07-31T02:01:14.265Z,3.83
2022-07-31T02:03:43.045Z,3.17
2022-07-31T02:06:14.544Z,3.22
2022-07-31T02:08:43.708Z,3.60
2022-07-31T02:11:14.217Z,3.65
2022-07-31T02:13:41.127Z,3.45
2022-07-31T02:16:08.575Z,3.67
2022-07-31T02:18:37.286Z,3.83
2022-07-31T02:21:15.325Z,3.60
2022-07-31T02:23:42.125Z,3.95
2022-07-31T02:26:09.172Z,3.80
2022-07-31T02:28:38.268Z,4.45
2022-07-31T02:31:07.055Z,3.92
2022-07-31T02:33:34.176Z,3.95
2022-07-31T02:36:01.717Z,4.00
2022-07-31T02:38:30.942Z,4.18
2022-07-31T02:40:59.038Z,4.38
2022-07-31T02:43:28.794Z,4.38
2022-07-31T02:45:57.536Z,4.28
2022-07-31T02:48:25.868Z,4.18
2022-07-31T02:50:54.361Z,4.30
2022-07-31T02:53:21.317Z,4.43
2022-07-31T02:55:51.955Z,4.22
2022-07-31T02:58:18.755Z,4.45
2022-07-31T03:00:46.155Z,4.10
2022-07-31T03:03:14.011Z,4.28
2022-07-31T03:05:42.071Z,4.38
2022-07-31T03:08:08.819Z,4.40
2022-07-31T03:10:39.400Z,4.45
2022-07-31T03:13:06.904Z,4.78
2022-07-31T03:15:34.081Z,4.30
2022-07-31T03:18:01.118Z,4.63
2022-07-31T03:20:40.281Z,4.50
2022-07-31T03:23:11.268Z,4.32
2022-07-31T03:25:49.009Z,4.22
2022-07-31T03:28:15.889Z,4.75
2022-07-31T03:30:43.300Z,4.32
2022-07-31T03:33:10.140Z,5.30
2022-07-31T03:35:42.417Z,5.40
2022-07-31T03:38:38.713Z,4.93
2022-07-31T03:41:01.375Z,4.28
2022-07-31T03:43:30.639Z,4.70
2022-07-31T03:46:17.195Z,4.97
2022-07-31T03:48:44.541Z,4.65
2022-07-31T03:51:13.473Z,5.25
2022-07-31T03:53:41.640Z,5.00
2022-07-31T03:56:11.994Z,4.88
2022-07-31T03:58:39.159Z,5.03
2022-07-31T04:01:10.336Z,4.90
2022-07-31T04:03:39.596Z,4.88
2022-07-31T04:06:28.206Z,4.85
2022-07-31T04:08:56.027Z,5.07
2022-07-31T04:11:22.935Z,4.80
2022-07-31T04:13:49.800Z,5.07
2022-07-31T04:16:16.806Z,4.57
2022-07-31T04:18:48.498Z,4.78
2022-07-31T04:21:20.800Z,4.88
2022-07-31T04:23:49.475Z,5.30
2022-07-31T04:26:31.328Z,4.90
2022-07-31T04:29:01.219Z,4.75
2022-07-31T04:31:28.203Z,4.85
2022-07-31T04:33:57.007Z,5.20
2022-07-31T04:36:30.309Z,5.55
2022-07-31T04:39:00.711Z,5.05
2022-07-31T04:41:28.685Z,6.13
2022-07-31T04:43:57.933Z,4.90
2022-07-31T04:46:26.513Z,5.10
2022-07-31T04:48:54.858Z,5.30
2022-07-31T04:51:23.245Z,5.53
2022-07-31T04:53:50.478Z,5.10
2022-07-31T04:56:42.258Z,5.60
2022-07-31T04:59:13.980Z,5.38
2022-07-31T05:01:44.075Z,5.30
2022-07-31T05:04:12.265Z,5.25
2022-07-31T05:06:40.354Z,5.30
2022-07-31T05:09:12.428Z,5.50
2022-07-31T05:11:43.568Z,5.93
2022-07-31T05:14:11.925Z,5.30
2022-07-31T05:16:38.813Z,5.65
2022-07-31T05:19:13.597Z,5.55
2022-07-31T05:22:02.541Z,5.45
2022-07-31T05:24:43.174Z,5.22
2022-07-31T05:27:13.091Z,5.40
2022-07-31T05:29:41.929Z,5.47
2022-07-31T05:32:09.075Z,5.00
2022-07-31T05:34:36.943Z,5.03
2022-07-31T05:37:03.998Z,5.00
2022-07-31T05:39:32.618Z,5.25
2022-07-31T05:42:18.005Z,4.80
2022-07-31T05:45:08.976Z,4.88
2022-07-31T05:47:40.344Z,5.22
2022-07-31T05:50:09.559Z,4.97
2022-07-31T05:52:36.528Z,5.13
2022-07-31T05:55:35.365Z,4.80
2022-07-31T05:58:21.094Z,5.25
2022-07-31T06:00:50.343Z,4.50
2022-07-31T06:03:23.376Z,4.53
2022-07-31T06:06:05.525Z,4.40
2022-07-31T06:08:32.490Z,4.47
2022-07-31T06:11:00.219Z,4.38
2022-07-31T06:13:27.815Z,4.13
2022-07-31T06:15:56.248Z,4.70
2022-07-31T06:18:23.204Z,4.53
2022-07-31T06:20:50.420Z,4.40
2022-07-31T06:23:22.983Z,3.80
2022-07-31T06:26:03.727Z,4.00
2022-07-31T06:28:47.336Z,3.80
2022-07-31T06:31:22.257Z,3.60
2022-07-31T06:33:53.505Z,3.55
2022-07-31T06:36:24.179Z,4.25
2022-07-31T06:38:57.787Z,4.10
2022-07-31T06:41:47.666Z,3.55
2022-07-31T06:44:30.394Z,3.20
2022-07-31T06:47:21.065Z,3.80
2022-07-31T06:49:50.988Z,3.42
2022-07-31T06:52:18.257Z,3.22
2022-07-31T06:54:46.204Z,3.47
2022-07-31T06:57:12.987Z,3.80
2022-07-31T06:59:40.897Z,3.20
2022-07-31T07:02:08.829Z,3.45
2022-07-31T07:05:04.784Z,3.05
2022-07-31T07:07:22.816Z,2.85
2022-07-31T07:09:51.111Z,2.90
2022-07-31T07:12:36.150Z,2.90
2022-07-31T07:15:02.944Z,2.72
2022-07-31T07:17:29.974Z,3.30
2022-07-31T07:19:57.234Z,3.42
2022-07-31T07:22:29.961Z,3.17
2022-07-31T07:25:01.249Z,3.00
2022-07-31T07:27:28.696Z,2.50
2022-07-31T07:29:56.136Z,3.53
2022-07-31T07:32:23.626Z,2.67
2022-07-31T07:34:59.591Z,3.08
2022-07-31T07:37:49.732Z,2.72
2022-07-31T07:40:19.440Z,2.92
2022-07-31T07:42:46.630Z,2.70
2022-07-31T07:45:14.073Z,2.78
2022-07-31T07:47:53.784Z,2.60
2022-07-31T07:50:31.263Z,2.90
2022-07-31T07:53:18.459Z,2.85
2022-07-31T07:56:08.052Z,3.10
2022-07-31T07:59:05.605Z,2.33
2022-07-31T08:02:02.935Z,2.67
2022-07-31T08:04:32.465Z,2.40
2022-07-31T08:06:59.294Z,2.60
2022-07-31T08:09:31.657Z,2.85
2022-07-31T08:12:32.997Z,2.90
2022-07-31T08:15:06.522Z,2.80
2022-07-31T08:17:45.877Z,2.50
2022-07-31T08:20:14.137Z,2.30
2022-07-31T08:22:40.962Z,2.22
2022-07-31T08:25:15.100Z,2.35
2022-07-31T08:27:43.888Z,3.03
2022-07-31T08:30:16.020Z,2.50
2022-07-31T08:32:42.940Z,2.50
2022-07-31T08:35:31.611Z,2.42
2022-07-31T08:38:03.521Z,2.40
2022-07-31T08:40:43.049Z,2.60
2022-07-31T08:43:31.207Z,2.30
2022-07-31T08:46:02.842Z,2.33
2022-07-31T08:48:33.497Z,2.60
2022-07-31T08:51:03.606Z,2.60
2022-07-31T08:54:08.241Z,2.35
2022-07-31T08:56:35.691Z,2.67
2022-07-31T08:59:03.356Z,2.50
2022-07-31T09:01:30.691Z,2.67
2022-07-31T09:03:58.809Z,2.50
2022-07-31T09:06:25.955Z,2.53
2022-07-31T09:08:52.730Z,2.65
2022-07-31T09:11:19.659Z,2.65
2022-07-31T09:14:03.777Z,2.47
2022-07-31T09:16:54.730Z,2.45
2022-07-31T09:19:51.674Z,2.08
2022-07-31T09:22:27.918Z,2.50
2022-07-31T09:25:16.479Z,2.10
2022-07-31T09:27:48.370Z,2.20
2022-07-31T09:30:16.346Z,1.95
2022-07-31T09:33:14.052Z,2.17
2022-07-31T09:35:58.692Z,2.15
2022-07-31T09:38:34.381Z,2.55
2022-07-31T09:41:55.830Z,2.03
2022-07-31T09:44:15.901Z,2.20
2022-07-31T09:46:45.330Z,2.15
2022-07-31T09:49:12.519Z,2.00
2022-07-31T09:51:42.049Z,2.28
2022-07-31T09:54:24.732Z,2.05
2022-07-31T09:57:13.902Z,2.63
2022-07-31T09:59:44.342Z,2.00
2022-07-31T10:02:14.739Z,1.98
2022-07-31T10:04:44.310Z,2.22
2022-07-31T10:07:32.026Z,2.30
2022-07-31T10:10:08.619Z,2.17
2022-07-31T10:13:04.091Z,2.40
2022-07-31T10:15:33.256Z,2.25
2022-07-31T10:18:35.731Z,2.20
2022-07-31T10:21:38.887Z,1.77
2022-07-31T10:24:29.288Z,2.17
2022-07-31T10:27:10.590Z,2.55
2022-07-31T10:29:40.063Z,1.80
2022-07-31T10:32:07.717Z,2.00
2022-07-31T10:34:38.055Z,2.10
2022-07-31T10:37:12.160Z,2.03
2022-07-31T10:40:15.969Z,2.30
2022-07-31T10:43:09.902Z,1.83
2022-07-31T10:45:54.130Z,2.00
2022-07-31T10:48:54.226Z,2.30
2022-07-31T10:51:51.182Z,2.28
2022-07-31T10:54:42.962Z,2.20
2022-07-31T10:57:34.586Z,2.00
2022-07-31T11:00:30.217Z,1.88
2022-07-31T11:03:17.695Z,1.90
2022-07-31T11:06:03.334Z,2.10
2022-07-31T11:08:52.381Z,2.13
2022-07-31T11:11:38.230Z,1.85
2022-07-31T11:14:33.045Z,2.30
2022-07-31T11:17:18.666Z,2.10
2022-07-31T11:20:25.069Z,1.90
2022-07-31T11:23:03.474Z,2.00
2022-07-31T11:25:32.471Z,2.33
2022-07-31T11:28:19.000Z,2.00
2022-07-31T11:31:03.958Z,2.22
2022-07-31T11:33:44.022Z,1.95
2022-07-31T11:36:20.222Z,2.05
2022-07-31T11:38:51.336Z,1.80
2022-07-31T11:41:22.828Z,2.03
2022-07-31T11:43:51.826Z,1.70
2022-07-31T11:46:32.156Z,2.00
2022-07-31T11:49:00.412Z,1.95
2022-07-31T11:51:28.140Z,1.75
2022-07-31T11:53:57.343Z,1.70
2022-07-31T11:56:26.242Z,1.80
2022-07-31T11:58:55.608Z,2.05
2022-07-31T12:01:29.661Z,1.98
2022-07-31T12:04:07.531Z,1.70
2022-07-31T12:06:37.134Z,1.88
2022-07-31T12:09:04.404Z,1.95
2022-07-31T12:11:33.996Z,2.28
2022-07-31T12:14:01.087Z,1.80
2022-07-31T12:16:38.921Z,1.95
2022-07-31T12:19:05.838Z,1.60
2022-07-31T12:21:40.630Z,1.50
2022-07-31T12:24:13.243Z,1.83
2022-07-31T12:26:44.043Z,2.00
2022-07-31T12:29:12.682Z,1.70
2022-07-31T12:31:54.382Z,1.80
2022-07-31T12:34:29.805Z,1.60
2022-07-31T12:36:59.728Z,1.73
2022-07-31T12:39:26.661Z,1.52
2022-07-31T12:42:30.713Z,1.80
2022-07-31T12:45:01.331Z,1.70
2022-07-31T12:47:52.063Z,1.83
2022-07-31T12:50:21.032Z,1.27
2022-07-31T12:52:47.873Z,1.60
2022-07-31T12:55:17.236Z,1.52
2022-07-31T12:57:50.640Z,1.48
2022-07-31T13:00:19.296Z,1.65
2022-07-31T13:02:46.510Z,1.85
2022-07-31T13:05:13.363Z,1.40
2022-07-31T13:07:43.659Z,1.38
2022-07-31T13:10:20.975Z,1.48
2022-07-31T13:12:51.141Z,1.50
2022-07-31T13:15:20.984Z,1.52
2022-07-31T13:17:50.869Z,1.60
2022-07-31T13:20:18.586Z,1.48
2022-07-31T13:22:45.430Z,1.90
2022-07-31T13:25:12.414Z,1.70
2022-07-31T13:27:39.663Z,1.60
2022-07-31T13:30:09.218Z,1.67
2022-07-31T13:32:36.389Z,1.70
2022-07-31T13:35:24.283Z,1.60
2022-07-31T13:37:50.638Z,1.40
2022-07-31T13:40:19.197Z,1.63
2022-07-31T13:42:45.926Z,1.67
2022-07-31T13:45:12.688Z,2.17
2022-07-31T13:47:51.504Z,1.83
2022-07-31T13:50:19.558Z,1.70
2022-07-31T13:52:47.566Z,1.80
2022-07-31T13:55:14.585Z,1.63
2022-07-31T13:57:41.437Z,1.58
2022-07-31T14:00:09.003Z,1.50
2022-07-31T14:02:35.780Z,1.83
2022-07-31T14:05:02.864Z,1.90
2022-07-31T14:07:45.175Z,1.73
2022-07-31T14:10:19.956Z,1.42
2022-07-31T14:12:47.388Z,1.70
2022-07-31T14:15:14.237Z,1.40
2022-07-31T14:17:41.113Z,1.42
2022-07-31T14:20:08.585Z,1.67
2022-07-31T14:22:36.026Z,1.60
2022-07-31T14:25:03.061Z,2.17
2022-07-31T14:27:30.101Z,1.27
2022-07-31T14:29:56.912Z,1.35
2022-07-31T14:32:24.299Z,1.50
2022-07-31T14:34:51.539Z,1.30
2022-07-31T14:37:18.376Z,1.67
2022-07-31T14:39:45.182Z,1.60
2022-07-31T14:42:12.353Z,1.73
2022-07-31T14:44:42.087Z,1.42
2022-07-31T14:47:10.406Z,2.65
2022-07-31T14:50:07.403Z,2.83
2022-07-31T14:52:24.606Z,8.70
2022-07-31T14:54:53.959Z,2.17
2022-07-31T14:57:22.392Z,2.10
2022-07-31T14:59:50.366Z,1.45
2022-07-31T15:02:22.175Z,2.20
2022-07-31T15:04:50.023Z,3.88
2022-07-31T15:10:08.047Z,1.40
2022-07-31T15:12:35.074Z,1.70
2022-07-31T15:15:02.136Z,1.35
2022-07-31T15:17:29.105Z,1.40
2022-07-31T15:19:55.899Z,1.65
2022-07-31T15:22:22.817Z,1.30
2022-07-31T15:24:50.288Z,1.27
2022-07-31T15:27:22.126Z,1.30
2022-07-31T15:30:04.457Z,1.55
2022-07-31T15:32:38.933Z,1.42
2022-07-31T15:35:08.198Z,1.40
2022-07-31T15:37:36.950Z,1.80
2022-07-31T15:40:06.060Z,1.35
2022-07-31T15:42:34.094Z,1.30
2022-07-31T15:45:01.117Z,1.40
2022-07-31T15:47:28.174Z,1.20
2022-07-31T15:49:55.241Z,1.42
2022-07-31T15:52:22.432Z,1.45
2022-07-31T15:54:51.803Z,1.20
2022-07-31T15:57:23.600Z,1.45
2022-07-31T15:59:51.825Z,1.00
2022-07-31T16:02:18.707Z,1.10
2022-07-31T16:04:51.524Z,1.20
2022-07-31T16:08:32.163Z,1.20
2022-07-31T16:10:15.675Z,1.40
2022-07-31T16:12:47.430Z,1.48
2022-07-31T16:15:16.994Z,1.23
2022-07-31T16:17:44.890Z,1.40
2022-07-31T16:20:25.535Z,1.30
2022-07-31T16:22:56.093Z,1.15
2022-07-31T16:25:24.286Z,1.33
2022-07-31T16:27:52.570Z,1.27
2022-07-31T16:30:19.545Z,1.10
2022-07-31T16:32:46.315Z,1.15
2022-07-31T16:35:13.424Z,0.93
2022-07-31T16:37:51.067Z,1.00
2022-07-31T16:40:28.246Z,1.10
2022-07-31T16:42:57.738Z,1.10
2022-07-31T16:45:24.680Z,0.90
2022-07-31T16:47:52.365Z,0.90
2022-07-31T16:50:19.637Z,1.33
2022-07-31T16:52:48.292Z,1.10
2022-07-31T16:55:17.056Z,1.17
2022-07-31T16:57:44.047Z,1.50
2022-07-31T17:00:11.482Z,1.23
2022-07-31T17:02:38.523Z,1.30
2022-07-31T17:05:05.750Z,1.15
2022-07-31T17:07:32.596Z,1.02
2022-07-31T17:09:59.391Z,1.20
2022-07-31T17:12:26.196Z,1.33
2022-07-31T17:14:52.940Z,1.55
2022-07-31T17:17:20.839Z,1.75
2022-07-31T17:19:47.725Z,2.75
2022-07-31T17:22:17.935Z,1.80
2022-07-31T17:24:50.680Z,2.05
2022-07-31T17:27:18.470Z,1.23
2022-07-31T17:29:45.535Z,1.20
2022-07-31T17:32:12.647Z,1.20
2022-07-31T17:34:40.374Z,1.00
2022-07-31T17:37:07.975Z,1.40
2022-07-31T17:39:36.240Z,1.10
2022-07-31T17:42:03.089Z,1.00
2022-07-31T17:44:30.324Z,1.00
2022-07-31T17:46:57.825Z,0.93
2022-07-31T17:49:25.681Z,0.90
2022-07-31T17:52:07.726Z,1.23
2022-07-31T17:54:34.634Z,1.00
2022-07-31T17:57:01.652Z,3.22
2022-07-31T17:59:28.803Z,1.80
2022-07-31T18:02:04.297Z,1.10
2022-07-31T18:04:33.891Z,2.22
2022-07-31T18:07:01.968Z,1.30
2022-07-31T18:09:28.939Z,0.98
2022-07-31T18:11:58.831Z,1.60
2022-07-31T18:14:25.979Z,1.30
2022-07-31T18:16:53.242Z,1.20
2022-07-31T18:19:21.848Z,1.20
2022-07-31T18:21:50.197Z,1.40
2022-07-31T18:24:17.155Z,1.30
2022-07-31T18:26:44.129Z,1.60
2022-07-31T18:29:11.166Z,2.50
2022-07-31T18:31:38.530Z,1.55
2022-07-31T18:34:05.687Z,1.38
2022-07-31T18:36:35.798Z,1.40
2022-07-31T18:39:04.172Z,1.70
2022-07-31T18:41:31.414Z,2.17
2022-07-31T18:43:58.517Z,1.90
2022-07-31T18:46:25.681Z,1.75
2022-07-31T18:48:57.131Z,2.05
2022-07-31T18:51:28.279Z,1.98
2022-07-31T18:53:56.422Z,1.98
2022-07-31T18:56:24.520Z,2.67
2022-07-31T18:58:52.136Z,2.20
2022-07-31T19:01:19.046Z,2.00
2022-07-31T19:03:45.834Z,2.20
2022-07-31T19:06:12.767Z,1.83
2022-07-31T19:08:39.662Z,1.85
2022-07-31T19:11:06.699Z,1.90
2022-07-31T19:13:33.771Z,1.50
2022-07-31T19:16:01.004Z,1.90
2022-07-31T19:18:28.506Z,1.80
2022-07-31T19:21:21.286Z,1.70
2022-07-31T19:23:43.818Z,1.55
2022-07-31T19:26:11.244Z,1.90
2022-07-31T19:28:39.939Z,1.90
2022-07-31T19:31:07.543Z,2.20
2022-07-31T19:33:34.454Z,2.03
2022-07-31T19:36:02.814Z,1.77
2022-07-31T19:38:31.789Z,1.88
2022-07-31T19:40:58.846Z,2.38
2022-07-31T19:43:25.909Z,2.17
2022-07-31T19:46:09.435Z,1.88
2022-07-31T19:48:41.913Z,1.83
2022-07-31T19:51:10.925Z,2.22
2022-07-31T19:53:37.962Z,1.90
2022-07-31T19:56:07.770Z,1.83
2022-07-31T19:58:36.207Z,2.08
2022-07-31T20:01:05.408Z,1.85
2022-07-31T20:03:32.644Z,2.15
2022-07-31T20:06:00.096Z,2.08
2022-07-31T20:08:27.114Z,2.00
2022-07-31T20:11:02.112Z,2.05
2022-07-31T20:13:30.431Z,1.60
2022-07-31T20:15:58.336Z,1.95
2022-07-31T20:18:29.102Z,1.90
2022-07-31T20:20:58.226Z,2.10
2022-07-31T20:23:25.964Z,2.30
2022-07-31T20:25:52.782Z,2.15
2022-07-31T20:28:19.811Z,2.03
2022-07-31T20:30:46.807Z,1.90
2022-07-31T20:33:13.679Z,2.38
2022-07-31T20:35:49.450Z,1.92
2022-07-31T20:38:21.218Z,2.67
2022-07-31T20:40:53.502Z,2.22
2022-07-31T20:43:21.798Z,2.33
2022-07-31T20:45:48.651Z,2.35
2022-07-31T20:48:17.993Z,2.28
2022-07-31T20:50:47.765Z,2.10
2022-07-31T20:53:15.571Z,2.17
2022-07-31T20:55:47.153Z,2.40
2022-07-31T20:58:14.088Z,2.05
2022-07-31T21:00:41.547Z,2.53
2022-07-31T21:03:08.426Z,3.03
2022-07-31T21:05:35.384Z,2.38
2022-07-31T21:08:02.259Z,2.40
2022-07-31T21:10:29.941Z,2.60
2022-07-31T21:12:57.372Z,2.13
2022-07-31T21:15:43.941Z,2.58
2022-07-31T21:18:16.040Z,2.03
2022-07-31T21:20:52.302Z,2.15
2022-07-31T21:23:27.579Z,2.30
2022-07-31T21:25:56.732Z,3.70
2022-07-31T21:28:25.287Z,2.90
2022-07-31T21:30:54.105Z,3.13
2022-07-31T21:33:20.998Z,2.60
2022-07-31T21:35:48.126Z,2.30
2022-07-31T21:38:15.987Z,2.60
2022-07-31T21:40:43.858Z,2.03
2022-07-31T21:43:11.162Z,2.30
2022-07-31T21:45:55.610Z,2.30
2022-07-31T21:48:28.035Z,2.10
2022-07-31T21:50:55.094Z,2.25
2022-07-31T21:53:22.452Z,2.35
2022-07-31T21:55:49.367Z,2.53
2022-07-31T21:58:17.785Z,1.88
2022-07-31T22:00:44.748Z,2.30
2022-07-31T22:03:11.782Z,2.03
2022-07-31T22:05:57.258Z,1.70
2022-07-31T22:08:24.091Z,1.80
2022-07-31T22:10:51.947Z,1.92
2022-07-31T22:13:19.653Z,1.90
2022-07-31T22:15:54.283Z,1.60
2022-07-31T22:18:34.298Z,1.95
2022-07-31T22:21:02.942Z,1.95
2022-07-31T22:23:29.802Z,1.70
2022-07-31T22:25:56.577Z,1.98
2022-07-31T22:28:24.765Z,2.00
2022-07-31T22:30:52.220Z,1.98
2022-07-31T22:33:19.774Z,2.05
2022-07-31T22:35:58.973Z,2.03
2022-07-31T22:38:30.884Z,1.90
2022-07-31T22:41:01.781Z,2.10
2022-07-31T22:44:13.886Z,2.42
2022-07-31T22:46:16.881Z,1.85
2022-07-31T22:48:45.821Z,1.88
2022-07-31T22:51:14.265Z,1.70
2022-07-31T22:53:43.516Z,1.67
2022-07-31T22:56:10.242Z,1.80
2022-07-31T22:58:37.002Z,2.20
2022-07-31T23:01:04.223Z,1.90
2022-07-31T23:03:30.969Z,1.98
2022-07-31T23:06:03.590Z,2.22
2022-07-31T23:08:44.425Z,2.22
2022-07-31T23:11:11.247Z,1.85
2022-07-31T23:13:39.658Z,2.20
2022-07-31T23:16:06.529Z,2.60
2022-07-31T23:18:33.266Z,2.20
2022-07-31T23:21:00.074Z,2.28
2022-07-31T23:23:26.789Z,2.17
2022-07-31T23:25:53.513Z,2.33
2022-07-31T23:28:20.416Z,2.25
2022-07-31T23:30:47.139Z,2.40
2022-07-31T23:33:17.136Z,2.20
2022-07-31T23:35:43.946Z,2.25
2022-07-31T23:38:10.786Z,2.65
2022-07-31T23:40:37.731Z,2.50
2022-07-31T23:43:04.509Z,2.40
2022-07-31T23:45:31.253Z,2.15
2022-07-31T23:47:58.915Z,2.50
2022-07-31T23:50:25.944Z,2.58
2022-07-31T23:52:52.678Z,2.30
2022-07-31T23:55:19.649Z,2.80
2022-07-31T23:57:46.400Z,2.75
